Time;durP1;ratioP1;P1;durP2;ratioP2;P2;SDS_P1;SDS_P2;PMS_P1;PMS_P2;Temp;Humidity;BMP_temperature;BMP_pressure;BME280_temperature;BME280_humidity;BME280_pressure;Samples;Min_cycle;Max_cycle;Signal;HPM_P1;HPM_P2
2022/03/17 00:01:27;;;;;;;24.75;14.45;;;;;;;;;;5025834;28;20178;-67
2022/03/17 00:03:53;;;;;;;25.30;14.80;;;;;;;;;;5022367;28;20193;-67
2022/03/17 00:06:18;;;;;;;26.30;15.02;;;;;;;;;;5022320;28;20189;-67
2022/03/17 00:08:44;;;;;;;26.67;15.68;;;;;;;;;;5028801;28;20203;-67
2022/03/17 00:11:09;;;;;;;23.42;14.82;;;;;;;;;;5023209;28;20227;-67
2022/03/17 00:13:35;;;;;;;23.38;14.75;;;;;;;;;;5026989;28;20197;-67
2022/03/17 00:16:00;;;;;;;26.75;15.45;;;;;;;;;;5023794;28;20517;-67
2022/03/17 00:18:26;;;;;;;26.63;15.77;;;;;;;;;;5025841;28;20179;-67
2022/03/17 00:20:51;;;;;;;25.25;15.25;;;;;;;;;;5021428;28;20609;-67
2022/03/17 00:23:16;;;;;;;22.15;13.75;;;;;;;;;;5028660;28;20193;-67
2022/03/17 00:25:42;;;;;;;23.77;15.63;;;;;;;;;;5027008;28;20178;-67
2022/03/17 00:28:07;;;;;;;25.25;14.88;;;;;;;;;;5029569;28;20211;-67
2022/03/17 00:30:33;;;;;;;29.25;15.90;;;;;;;;;;5023776;28;20213;-67
2022/03/17 00:32:59;;;;;;;27.15;15.50;;;;;;;;;;5027597;28;20193;-68
2022/03/17 00:35:38;;;;;;;26.42;15.68;;;;;;;;;;5022064;28;20186;-67
2022/03/17 00:38:07;;;;;;;28.02;15.52;;;;;;;;;;5027906;28;20661;-67
2022/03/17 00:40:33;;;;;;;23.38;15.05;;;;;;;;;;5025497;28;20185;-67
2022/03/17 00:42:59;;;;;;;28.05;15.57;;;;;;;;;;5024715;28;20185;-67
2022/03/17 00:45:25;;;;;;;27.58;15.75;;;;;;;;;;5038364;28;20665;-67
2022/03/17 00:47:50;;;;;;;25.42;14.85;;;;;;;;;;5026868;28;20229;-67
2022/03/17 00:50:16;;;;;;;23.85;15.40;;;;;;;;;;5026816;28;20522;-66
2022/03/17 00:52:41;;;;;;;25.02;15.70;;;;;;;;;;5026325;28;20190;-66
2022/03/17 00:55:07;;;;;;;23.98;15.45;;;;;;;;;;5026215;28;20189;-67
2022/03/17 00:57:34;;;;;;;27.15;16.40;;;;;;;;;;5019968;28;20277;-67
2022/03/17 00:59:59;;;;;;;29.40;16.65;;;;;;;;;;5025778;28;20185;-66
2022/03/17 01:02:24;;;;;;;28.58;16.17;;;;;;;;;;5022550;28;20178;-66
2022/03/17 01:04:50;;;;;;;22.17;15.25;;;;;;;;;;5020407;28;20251;-66
2022/03/17 01:07:15;;;;;;;28.08;16.55;;;;;;;;;;5027472;28;20233;-66
2022/03/17 01:09:40;;;;;;;23.80;15.48;;;;;;;;;;5026437;28;20210;-67
2022/03/17 01:12:06;;;;;;;26.98;15.65;;;;;;;;;;5025826;28;20230;-67
2022/03/17 01:14:32;;;;;;;24.30;16.35;;;;;;;;;;5039334;28;20666;-67
2022/03/17 01:16:57;;;;;;;23.50;15.35;;;;;;;;;;5016391;28;20480;-67
2022/03/17 01:19:23;;;;;;;28.30;16.48;;;;;;;;;;5025694;28;20185;-68
2022/03/17 01:21:49;;;;;;;27.67;16.70;;;;;;;;;;5024228;28;20185;-67
2022/03/17 01:24:16;;;;;;;24.50;15.90;;;;;;;;;;5014823;28;20752;-67
2022/03/17 01:26:42;;;;;;;29.02;17.17;;;;;;;;;;5039310;28;20185;-67
2022/03/17 01:29:07;;;;;;;27.73;16.60;;;;;;;;;;5026259;28;20188;-68
2022/03/17 01:31:33;;;;;;;27.60;16.55;;;;;;;;;;5008286;28;20270;-67
2022/03/17 01:33:59;;;;;;;28.98;16.63;;;;;;;;;;5033385;28;20182;-67
2022/03/17 01:36:25;;;;;;;24.95;15.95;;;;;;;;;;5016815;28;20179;-68
2022/03/17 01:38:50;;;;;;;25.17;16.70;;;;;;;;;;5026094;28;20265;-67
2022/03/17 01:41:16;;;;;;;28.50;16.58;;;;;;;;;;5028281;28;20284;-67
2022/03/17 01:43:41;;;;;;;27.33;17.15;;;;;;;;;;5029007;28;20665;-67
2022/03/17 01:46:07;;;;;;;25.58;16.30;;;;;;;;;;5035634;28;20264;-67
2022/03/17 01:48:33;;;;;;;30.27;17.88;;;;;;;;;;5026432;28;20572;-67
2022/03/17 01:50:58;;;;;;;28.10;17.17;;;;;;;;;;5026076;28;20198;-67
2022/03/17 01:53:23;;;;;;;30.10;18.00;;;;;;;;;;5017052;28;20587;-67
2022/03/17 01:55:49;;;;;;;25.50;17.15;;;;;;;;;;5018377;28;20210;-67
2022/03/17 01:58:16;;;;;;;29.65;17.70;;;;;;;;;;5023701;28;20194;-67
2022/03/17 02:00:43;;;;;;;28.58;17.35;;;;;;;;;;5017128;28;20186;-67
2022/03/17 02:03:08;;;;;;;30.38;18.42;;;;;;;;;;5033774;28;20200;-67
2022/03/17 02:05:34;;;;;;;29.02;18.65;;;;;;;;;;5021079;28;20650;-67
2022/03/17 02:08:00;;;;;;;29.77;18.15;;;;;;;;;;5029970;28;20221;-67
2022/03/17 02:10:26;;;;;;;30.33;18.73;;;;;;;;;;5013493;28;20226;-68
2022/03/17 02:13:09;;;;;;;27.25;17.63;;;;;;;;;;5031146;28;20206;-68
2022/03/17 02:15:35;;;;;;;29.20;18.33;;;;;;;;;;5034857;28;20209;-68
2022/03/17 02:18:02;;;;;;;29.83;18.55;;;;;;;;;;5025132;28;20174;-68
2022/03/17 02:20:28;;;;;;;29.73;18.48;;;;;;;;;;5028684;28;20200;-67
2022/03/17 02:22:55;;;;;;;30.00;19.50;;;;;;;;;;5030827;28;20532;-67
2022/03/17 02:25:35;;;;;;;33.65;18.33;;;;;;;;;;5032452;28;20269;-68
2022/03/17 02:28:06;;;;;;;26.65;17.38;;;;;;;;;;5020720;28;20739;-68
2022/03/17 02:30:37;;;;;;;32.50;18.90;;;;;;;;;;5025056;28;20217;-68
2022/03/17 02:33:07;;;;;;;31.20;19.88;;;;;;;;;;5035661;28;20208;-68
2022/03/17 02:35:33;;;;;;;31.48;18.48;;;;;;;;;;5020794;28;20713;-68
2022/03/17 02:38:03;;;;;;;30.08;18.55;;;;;;;;;;5030121;28;20273;-67
2022/03/17 02:40:30;;;;;;;29.08;18.40;;;;;;;;;;5022682;28;20190;-67
2022/03/17 02:42:57;;;;;;;25.10;17.30;;;;;;;;;;5030048;28;20182;-68
2022/03/17 02:45:23;;;;;;;30.02;19.33;;;;;;;;;;5037481;28;20578;-68
2022/03/17 02:47:50;;;;;;;28.80;18.30;;;;;;;;;;5023752;28;20301;-68
2022/03/17 02:50:16;;;;;;;28.48;18.42;;;;;;;;;;5027330;28;20201;-68
2022/03/17 02:52:41;;;;;;;30.50;19.02;;;;;;;;;;5036276;28;20185;-68
2022/03/17 02:55:10;;;;;;;31.17;18.83;;;;;;;;;;5022132;28;20506;-68
2022/03/17 02:57:36;;;;;;;29.70;18.98;;;;;;;;;;5010742;28;20217;-68
2022/03/17 03:00:04;;;;;;;34.15;19.55;;;;;;;;;;5015668;28;20186;-68
2022/03/17 03:02:30;;;;;;;29.88;18.75;;;;;;;;;;5022093;28;20272;-67
2022/03/17 03:04:55;;;;;;;28.92;19.30;;;;;;;;;;5035204;28;20250;-68
2022/03/17 03:07:20;;;;;;;28.58;18.52;;;;;;;;;;5045093;28;20216;-67
2022/03/17 03:09:46;;;;;;;29.83;19.73;;;;;;;;;;5037553;28;20228;-68
2022/03/17 03:12:11;;;;;;;29.83;19.05;;;;;;;;;;5032722;28;20208;-68
2022/03/17 03:14:37;;;;;;;31.05;19.55;;;;;;;;;;5044237;28;20265;-68
2022/03/17 03:17:03;;;;;;;30.98;19.25;;;;;;;;;;5030452;28;20532;-68
2022/03/17 03:19:28;;;;;;;31.13;19.85;;;;;;;;;;5027605;28;20194;-67
2022/03/17 03:21:53;;;;;;;30.27;18.77;;;;;;;;;;5024490;28;20276;-67
2022/03/17 03:24:19;;;;;;;32.72;19.85;;;;;;;;;;5028360;28;20491;-68
2022/03/17 03:26:44;;;;;;;31.13;19.30;;;;;;;;;;5026083;28;20185;-68
2022/03/17 03:31:43;;;;;;;31.20;20.17;;;;;;;;;;5016765;28;20248;-67
2022/03/17 03:34:08;;;;;;;33.58;20.13;;;;;;;;;;5028694;28;20257;-67
2022/03/17 03:39:17;;;;;;;33.33;20.40;;;;;;;;;;5024261;28;20194;-68
2022/03/17 03:41:43;;;;;;;30.73;19.35;;;;;;;;;;5037662;28;20181;-67
2022/03/17 03:44:08;;;;;;;32.05;20.80;;;;;;;;;;5037846;28;20644;-68
2022/03/17 03:46:34;;;;;;;30.80;19.00;;;;;;;;;;5035618;28;20558;-67
2022/03/17 03:48:59;;;;;;;30.45;19.65;;;;;;;;;;5028214;28;20285;-67
2022/03/17 03:51:24;;;;;;;33.95;20.45;;;;;;;;;;5025108;28;20177;-67
2022/03/17 03:56:34;;;;;;;31.77;19.95;;;;;;;;;;5022347;28;20197;-68
2022/03/17 03:59:05;;;;;;;34.38;20.73;;;;;;;;;;5025833;28;20182;-67
2022/03/17 04:01:32;;;;;;;33.17;21.10;;;;;;;;;;5029474;28;20213;-68
2022/03/17 04:03:58;;;;;;;33.08;21.45;;;;;;;;;;5021445;28;20240;-67
2022/03/17 04:06:23;;;;;;;34.15;21.27;;;;;;;;;;5025902;28;20642;-67
2022/03/17 04:08:48;;;;;;;37.15;21.42;;;;;;;;;;5027343;28;20754;-67
2022/03/17 04:11:14;;;;;;;36.88;21.30;;;;;;;;;;5017831;28;20301;-67
2022/03/17 04:13:39;;;;;;;37.03;21.85;;;;;;;;;;5025773;28;20637;-67
2022/03/17 04:16:04;;;;;;;32.45;20.20;;;;;;;;;;5036840;28;20611;-67
2022/03/17 04:18:30;;;;;;;37.20;21.23;;;;;;;;;;5044286;28;20177;-68
2022/03/17 04:20:55;;;;;;;35.28;21.05;;;;;;;;;;5035653;28;20174;-68
2022/03/17 04:23:20;;;;;;;34.90;21.35;;;;;;;;;;5037994;28;20186;-68
2022/03/17 04:25:46;;;;;;;37.03;21.92;;;;;;;;;;5022117;28;20186;-67
2022/03/17 04:28:11;;;;;;;37.83;22.90;;;;;;;;;;5026829;28;20248;-67
2022/03/17 04:30:36;;;;;;;41.00;22.58;;;;;;;;;;5024771;28;20210;-67
2022/03/17 04:33:02;;;;;;;40.55;24.27;;;;;;;;;;5023951;28;20187;-67
2022/03/17 04:35:27;;;;;;;37.72;23.00;;;;;;;;;;5020729;28;20193;-67
2022/03/17 04:37:53;;;;;;;38.58;23.73;;;;;;;;;;5021068;28;20323;-68
2022/03/17 04:40:18;;;;;;;44.58;24.55;;;;;;;;;;5024790;28;20182;-67
2022/03/17 04:42:43;;;;;;;44.63;24.42;;;;;;;;;;5022983;28;20177;-68
2022/03/17 04:45:09;;;;;;;43.35;24.70;;;;;;;;;;5029217;28;20193;-68
2022/03/17 04:47:34;;;;;;;41.53;24.63;;;;;;;;;;5020121;28;20740;-68
2022/03/17 04:50:00;;;;;;;46.53;25.10;;;;;;;;;;5012910;28;20311;-68
2022/03/17 04:55:09;;;;;;;49.38;26.67;;;;;;;;;;5036997;28;20226;-68
2022/03/17 04:57:34;;;;;;;49.42;27.75;;;;;;;;;;5040107;28;20286;-68
2022/03/17 05:00:00;;;;;;;51.60;27.55;;;;;;;;;;5039520;28;20284;-68
2022/03/17 05:02:25;;;;;;;50.28;28.15;;;;;;;;;;5033870;28;20185;-68
2022/03/17 05:04:52;;;;;;;53.92;29.02;;;;;;;;;;5039047;28;20572;-69
2022/03/17 05:07:18;;;;;;;51.25;28.15;;;;;;;;;;5026867;28;20222;-68
2022/03/17 05:09:43;;;;;;;51.20;27.92;;;;;;;;;;5026718;28;20611;-68
2022/03/17 05:12:09;;;;;;;55.75;29.73;;;;;;;;;;5026302;28;20186;-68
2022/03/17 05:14:35;;;;;;;53.60;29.35;;;;;;;;;;5022983;28;20806;-68
2022/03/17 05:17:00;;;;;;;55.85;28.60;;;;;;;;;;5024375;28;20181;-68
2022/03/17 05:19:25;;;;;;;54.13;29.13;;;;;;;;;;5028225;28;20249;-68
2022/03/17 05:21:52;;;;;;;64.22;32.03;;;;;;;;;;5025761;28;20277;-68
2022/03/17 05:24:18;;;;;;;55.85;29.92;;;;;;;;;;5028026;28;20196;-68
2022/03/17 05:26:45;;;;;;;57.90;30.27;;;;;;;;;;5023772;28;21884;-68
2022/03/17 05:29:12;;;;;;;50.10;28.63;;;;;;;;;;5025013;28;20208;-70
2022/03/17 05:31:37;;;;;;;36.13;19.20;;;;;;;;;;5022947;28;20198;-72
2022/03/17 05:34:03;;;;;;;20.52;10.80;;;;;;;;;;5025572;28;20273;-71
2022/03/17 05:36:28;;;;;;;13.50;7.65;;;;;;;;;;5026355;28;20177;-72
2022/03/17 05:38:53;;;;;;;10.48;5.85;;;;;;;;;;5026732;28;20262;-71
2022/03/17 05:41:19;;;;;;;10.80;6.38;;;;;;;;;;5030515;28;20183;-71
2022/03/17 05:43:44;;;;;;;8.63;5.85;;;;;;;;;;5033472;28;20174;-74
2022/03/17 05:46:10;;;;;;;9.68;6.28;;;;;;;;;;5031491;28;20190;-70
2022/03/17 05:48:35;;;;;;;8.88;6.22;;;;;;;;;;5036392;28;20525;-71
2022/03/17 05:51:00;;;;;;;12.97;6.83;;;;;;;;;;5040321;28;20668;-73
2022/03/17 05:53:26;;;;;;;8.23;6.22;;;;;;;;;;5033846;28;20229;-71
2022/03/17 05:55:51;;;;;;;10.88;7.15;;;;;;;;;;5029716;28;20234;-70
2022/03/17 05:58:16;;;;;;;10.13;6.97;;;;;;;;;;5032555;28;20186;-69
2022/03/17 06:00:42;;;;;;;13.02;7.20;;;;;;;;;;5029390;28;20192;-69
2022/03/17 06:03:07;;;;;;;10.38;6.88;;;;;;;;;;5029228;28;20182;-69
2022/03/17 06:05:32;;;;;;;12.43;7.63;;;;;;;;;;5032916;28;20186;-70
2022/03/17 06:08:02;;;;;;;14.43;8.27;;;;;;;;;;5033700;28;20280;-69
2022/03/17 06:10:34;;;;;;;12.27;8.35;;;;;;;;;;5028473;28;20238;-69
2022/03/17 06:13:02;;;;;;;12.48;8.70;;;;;;;;;;5021135;28;20190;-68
2022/03/17 06:15:28;;;;;;;12.17;8.23;;;;;;;;;;5027044;28;20209;-69
2022/03/17 06:17:57;;;;;;;13.07;8.32;;;;;;;;;;5029026;28;20198;-69
2022/03/17 06:20:25;;;;;;;11.65;8.45;;;;;;;;;;5027652;28;20630;-69
2022/03/17 06:22:52;;;;;;;14.80;9.10;;;;;;;;;;5027478;28;20194;-67
2022/03/17 06:25:20;;;;;;;14.02;8.50;;;;;;;;;;5027355;28;20264;-68
2022/03/17 06:27:47;;;;;;;12.43;8.43;;;;;;;;;;5037443;28;20742;-68
2022/03/17 06:30:18;;;;;;;17.38;9.20;;;;;;;;;;5028027;28;20182;-67
2022/03/17 06:32:43;;;;;;;13.67;8.63;;;;;;;;;;5028742;28;20610;-67
2022/03/17 06:35:11;;;;;;;13.40;8.95;;;;;;;;;;5028162;28;20239;-68
2022/03/17 06:37:37;;;;;;;17.05;9.85;;;;;;;;;;5026389;28;20638;-67
2022/03/17 06:40:07;;;;;;;21.00;8.45;;;;;;;;;;5029785;28;20190;-67
2022/03/17 06:42:33;;;;;;;12.77;7.82;;;;;;;;;;5030796;28;20255;-68
2022/03/17 06:44:59;;;;;;;17.13;7.50;;;;;;;;;;5033856;28;20508;-68
2022/03/17 06:47:24;;;;;;;17.13;6.60;;;;;;;;;;5036529;28;20202;-68
2022/03/17 06:49:50;;;;;;;14.57;5.78;;;;;;;;;;5034435;28;20594;-68
2022/03/17 06:52:15;;;;;;;15.25;4.85;;;;;;;;;;5037303;28;20673;-67
2022/03/17 06:54:41;;;;;;;11.45;4.55;;;;;;;;;;5034090;28;20186;-67
2022/03/17 06:57:06;;;;;;;13.10;4.88;;;;;;;;;;5040390;28;20189;-67
2022/03/17 06:59:31;;;;;;;19.70;4.68;;;;;;;;;;5033469;28;20181;-68
2022/03/17 07:01:57;;;;;;;13.73;4.37;;;;;;;;;;5027453;28;20206;-67
2022/03/17 07:04:22;;;;;;;17.57;5.57;;;;;;;;;;5037215;28;20722;-68
2022/03/17 07:06:47;;;;;;;14.10;4.30;;;;;;;;;;5032179;28;20477;-67
2022/03/17 07:09:13;;;;;;;14.35;4.38;;;;;;;;;;5034099;28;20481;-67
2022/03/17 07:11:39;;;;;;;13.13;3.37;;;;;;;;;;5011723;28;20657;-67
2022/03/17 07:14:04;;;;;;;16.10;3.10;;;;;;;;;;5029580;28;20488;-68
2022/03/17 07:16:30;;;;;;;12.15;3.25;;;;;;;;;;5031864;28;20185;-67
2022/03/17 07:18:55;;;;;;;8.17;2.90;;;;;;;;;;5031583;28;20200;-68
2022/03/17 07:21:20;;;;;;;8.82;2.88;;;;;;;;;;5027951;28;20191;-67
2022/03/17 07:23:46;;;;;;;10.25;2.88;;;;;;;;;;5027490;28;20179;-68
2022/03/17 07:26:11;;;;;;;9.90;2.88;;;;;;;;;;5036505;28;20214;-67
2022/03/17 07:28:36;;;;;;;13.23;3.15;;;;;;;;;;5027401;28;20205;-67
2022/03/17 07:31:02;;;;;;;7.70;2.50;;;;;;;;;;5024818;28;20249;-68
2022/03/17 07:33:27;;;;;;;10.75;2.95;;;;;;;;;;5017609;28;20229;-67
2022/03/17 07:35:53;;;;;;;11.70;3.10;;;;;;;;;;5027024;28;20183;-67
2022/03/17 07:38:18;;;;;;;7.50;2.35;;;;;;;;;;5031664;28;20187;-67
2022/03/17 07:40:45;;;;;;;9.07;2.17;;;;;;;;;;5029108;28;20240;-67
2022/03/17 07:43:11;;;;;;;10.80;2.20;;;;;;;;;;5016831;28;20182;-67
2022/03/17 07:45:37;;;;;;;9.95;1.88;;;;;;;;;;5027658;28;20277;-67
2022/03/17 07:48:03;;;;;;;11.15;2.30;;;;;;;;;;5021483;28;20203;-67
2022/03/17 07:50:29;;;;;;;9.32;1.42;;;;;;;;;;5028297;28;20186;-67
2022/03/17 07:52:54;;;;;;;7.05;1.75;;;;;;;;;;5022967;28;20183;-67
2022/03/17 07:55:19;;;;;;;9.70;2.05;;;;;;;;;;5041474;28;20554;-67
2022/03/17 07:57:45;;;;;;;6.30;1.73;;;;;;;;;;5021053;28;20600;-67
2022/03/17 08:00:11;;;;;;;7.65;2.05;;;;;;;;;;5040244;28;20190;-67
2022/03/17 08:02:37;;;;;;;8.73;1.80;;;;;;;;;;5032161;28;20686;-68
2022/03/17 08:05:04;;;;;;;11.40;1.83;;;;;;;;;;5022820;28;20222;-67
2022/03/17 08:07:30;;;;;;;10.23;2.03;;;;;;;;;;5024330;28;20499;-67
2022/03/17 08:09:57;;;;;;;8.95;1.80;;;;;;;;;;5015140;28;20261;-68
2022/03/17 08:12:23;;;;;;;10.30;1.55;;;;;;;;;;5032753;28;20205;-67
2022/03/17 08:14:50;;;;;;;10.07;1.77;;;;;;;;;;5021541;28;20189;-66
2022/03/17 08:17:15;;;;;;;6.97;1.20;;;;;;;;;;5029562;28;20277;-67
2022/03/17 08:19:41;;;;;;;12.50;1.48;;;;;;;;;;5031156;28;20242;-67
2022/03/17 08:22:06;;;;;;;11.33;1.80;;;;;;;;;;5025826;28;20697;-67
2022/03/17 08:24:31;;;;;;;7.38;0.90;;;;;;;;;;5029146;28;20181;-67
2022/03/17 08:26:57;;;;;;;8.30;1.43;;;;;;;;;;5021826;28;20382;-67
2022/03/17 08:29:22;;;;;;;4.40;1.10;;;;;;;;;;5023329;28;20701;-67
2022/03/17 08:31:47;;;;;;;6.05;1.30;;;;;;;;;;5035197;28;20228;-67
2022/03/17 08:34:13;;;;;;;10.63;1.50;;;;;;;;;;5017631;28;20709;-68
2022/03/17 08:36:39;;;;;;;10.05;1.25;;;;;;;;;;5023264;28;20621;-67
2022/03/17 08:39:05;;;;;;;4.43;1.05;;;;;;;;;;5018726;28;20180;-67
2022/03/17 08:41:30;;;;;;;5.63;1.10;;;;;;;;;;5039654;28;20174;-68
2022/03/17 08:43:55;;;;;;;7.75;1.40;;;;;;;;;;5026899;28;20178;-66
2022/03/17 08:49:22;;;;;;;6.75;1.48;;;;;;;;;;5026738;28;20275;-68
2022/03/17 08:51:52;;;;;;;9.20;1.67;;;;;;;;;;5043361;28;20178;-67
2022/03/17 08:54:20;;;;;;;8.07;1.10;;;;;;;;;;5026397;28;20181;-67
2022/03/17 08:56:45;;;;;;;8.45;1.40;;;;;;;;;;5029165;28;20185;-68
2022/03/17 08:59:10;;;;;;;9.95;2.33;;;;;;;;;;5018213;28;20563;-67
2022/03/17 09:01:39;;;;;;;6.55;1.20;;;;;;;;;;5024534;28;20677;-68
2022/03/17 09:04:05;;;;;;;11.35;1.30;;;;;;;;;;5027093;28;20182;-67
2022/03/17 09:06:31;;;;;;;7.47;0.80;;;;;;;;;;5009305;28;20187;-67
2022/03/17 09:08:56;;;;;;;12.93;1.95;;;;;;;;;;5017957;28;20267;-67
2022/03/17 09:11:21;;;;;;;6.13;1.25;;;;;;;;;;5025619;28;20245;-68
2022/03/17 09:13:49;;;;;;;5.53;1.35;;;;;;;;;;5019738;28;20246;-67
2022/03/17 09:16:16;;;;;;;17.88;1.70;;;;;;;;;;5026440;28;20182;-67
2022/03/17 09:18:42;;;;;;;10.70;1.40;;;;;;;;;;5027239;28;20629;-67
2022/03/17 09:21:08;;;;;;;11.85;1.30;;;;;;;;;;5026010;28;20216;-67
2022/03/17 09:23:33;;;;;;;10.68;1.67;;;;;;;;;;5025551;28;20174;-68
2022/03/17 09:25:59;;;;;;;7.72;1.50;;;;;;;;;;5017181;28;20652;-65
2022/03/17 09:28:26;;;;;;;7.82;1.38;;;;;;;;;;5020799;28;20210;-67
2022/03/17 09:30:52;;;;;;;6.03;1.38;;;;;;;;;;5027434;28;20252;-67
2022/03/17 09:33:18;;;;;;;8.18;1.27;;;;;;;;;;5014045;28;20190;-66
2022/03/17 09:35:43;;;;;;;11.63;1.30;;;;;;;;;;5016032;28;20639;-67
2022/03/17 09:38:10;;;;;;;10.30;1.33;;;;;;;;;;5017804;28;20187;-67
2022/03/17 09:40:36;;;;;;;6.72;1.00;;;;;;;;;;5032472;28;20637;-67
2022/03/17 09:45:53;;;;;;;7.93;1.33;;;;;;;;;;5027125;28;20300;-67
2022/03/17 09:48:23;;;;;;;7.85;1.48;;;;;;;;;;5022989;28;20317;-67
2022/03/17 09:50:55;;;;;;;8.50;1.20;;;;;;;;;;5028060;28;20174;-67
2022/03/17 09:53:22;;;;;;;12.05;1.08;;;;;;;;;;5023903;28;20564;-67
2022/03/17 09:55:47;;;;;;;7.28;1.08;;;;;;;;;;5038068;28;20182;-67
2022/03/17 09:58:13;;;;;;;5.15;1.25;;;;;;;;;;5021505;28;20189;-66
2022/03/17 10:00:47;;;;;;;6.32;1.08;;;;;;;;;;5027353;28;20248;-67
2022/03/17 10:03:17;;;;;;;8.55;1.15;;;;;;;;;;5014657;28;20273;-67
2022/03/17 10:05:47;;;;;;;13.40;1.45;;;;;;;;;;5027250;28;20186;-67
2022/03/17 10:08:13;;;;;;;10.07;1.48;;;;;;;;;;5020627;28;20206;-66
2022/03/17 10:10:41;;;;;;;11.43;1.52;;;;;;;;;;5026387;28;20258;-67
2022/03/17 10:13:19;;;;;;;12.52;1.50;;;;;;;;;;5022074;28;20274;-67
2022/03/17 10:15:45;;;;;;;10.07;1.50;;;;;;;;;;5024359;28;20194;-67
2022/03/17 10:18:24;;;;;;;11.20;1.42;;;;;;;;;;5022467;28;20591;-67
2022/03/17 10:21:09;;;;;;;6.95;1.00;;;;;;;;;;5029521;28;20189;-66
2022/03/17 10:23:50;;;;;;;8.30;2.05;;;;;;;;;;5016336;28;20286;-67
2022/03/17 10:26:36;;;;;;;8.90;1.40;;;;;;;;;;5038305;28;20177;-66
2022/03/17 10:29:14;;;;;;;8.43;0.95;;;;;;;;;;5023955;28;20486;-67
2022/03/17 10:32:04;;;;;;;9.40;1.38;;;;;;;;;;5025193;28;20217;-67
2022/03/17 10:34:36;;;;;;;6.72;1.38;;;;;;;;;;5035984;28;20619;-67
2022/03/17 10:37:07;;;;;;;5.30;1.25;;;;;;;;;;5027495;28;20539;-67
2022/03/17 10:39:44;;;;;;;11.05;0.90;;;;;;;;;;5027375;28;20404;-67
2022/03/17 10:42:17;;;;;;;5.78;0.70;;;;;;;;;;5020872;28;20186;-67
2022/03/17 10:44:49;;;;;;;3.88;0.77;;;;;;;;;;5027898;28;20190;-68
2022/03/17 10:47:21;;;;;;;5.25;0.90;;;;;;;;;;5034657;28;20188;-67
2022/03/17 10:50:15;;;;;;;5.75;0.88;;;;;;;;;;5023557;28;20637;-68
2022/03/17 10:52:49;;;;;;;5.03;1.08;;;;;;;;;;5030967;28;20590;-66
2022/03/17 10:55:19;;;;;;;3.58;0.80;;;;;;;;;;5029155;28;20307;-67
2022/03/17 10:57:45;;;;;;;8.07;0.90;;;;;;;;;;5033704;28;20549;-67
2022/03/17 11:00:29;;;;;;;7.75;1.13;;;;;;;;;;5028236;28;20188;-67
2022/03/17 11:02:59;;;;;;;4.50;0.80;;;;;;;;;;5018460;28;20289;-67
2022/03/17 11:05:29;;;;;;;8.85;0.90;;;;;;;;;;5041275;28;20671;-67
2022/03/17 11:07:57;;;;;;;6.43;0.90;;;;;;;;;;5035228;28;20200;-67
2022/03/17 11:10:24;;;;;;;8.40;1.08;;;;;;;;;;5038324;28;20312;-67
2022/03/17 11:12:50;;;;;;;7.97;1.00;;;;;;;;;;5043040;28;20239;-67
2022/03/17 11:15:25;;;;;;;7.60;1.17;;;;;;;;;;5030653;28;20181;-67
2022/03/17 11:17:51;;;;;;;5.72;1.20;;;;;;;;;;5040493;28;20283;-67
2022/03/17 11:20:20;;;;;;;8.48;1.05;;;;;;;;;;5018090;28;20724;-67
2022/03/17 11:23:25;;;;;;;3.60;0.88;;;;;;;;;;5034897;28;20608;-67
2022/03/17 11:25:55;;;;;;;5.55;1.33;;;;;;;;;;5031037;28;20275;-67
2022/03/17 11:28:32;;;;;;;5.32;1.15;;;;;;;;;;5030594;28;20212;-67
2022/03/17 11:31:03;;;;;;;6.00;1.08;;;;;;;;;;5026409;28;20201;-67
2022/03/17 11:33:35;;;;;;;12.10;1.45;;;;;;;;;;5029430;28;20529;-66
2022/03/17 11:36:07;;;;;;;9.10;1.63;;;;;;;;;;5036056;28;20494;-67
2022/03/17 11:38:32;;;;;;;10.60;1.48;;;;;;;;;;5027455;28;20269;-67
2022/03/17 11:41:15;;;;;;;10.32;1.27;;;;;;;;;;5030257;28;20270;-67
2022/03/17 11:43:46;;;;;;;10.77;1.27;;;;;;;;;;5027341;28;20554;-68
2022/03/17 11:46:17;;;;;;;8.13;1.20;;;;;;;;;;5024110;28;20182;-67
2022/03/17 11:48:43;;;;;;;9.13;1.23;;;;;;;;;;5015650;28;20210;-66
2022/03/17 11:51:12;;;;;;;4.95;1.15;;;;;;;;;;5026580;28;20190;-67
2022/03/17 11:53:45;;;;;;;12.27;1.42;;;;;;;;;;5030627;28;20178;-67
2022/03/17 11:56:27;;;;;;;14.05;1.45;;;;;;;;;;5019211;28;20186;-67
2022/03/17 11:58:54;;;;;;;9.35;1.13;;;;;;;;;;5023617;28;20649;-68
2022/03/17 12:01:23;;;;;;;7.28;0.95;;;;;;;;;;5029901;28;20209;-68
2022/03/17 12:03:55;;;;;;;6.43;0.88;;;;;;;;;;5033024;28;20550;-67
2022/03/17 12:06:22;;;;;;;5.65;1.27;;;;;;;;;;5023454;28;20311;-68
2022/03/17 12:09:05;;;;;;;5.95;1.05;;;;;;;;;;5031959;28;20253;-67
2022/03/17 12:11:45;;;;;;;3.92;0.80;;;;;;;;;;5026295;28;20257;-68
2022/03/17 12:14:17;;;;;;;5.90;0.88;;;;;;;;;;5014630;28;20209;-67
2022/03/17 12:16:55;;;;;;;5.20;1.17;;;;;;;;;;5023926;28;20248;-67
2022/03/17 12:19:23;;;;;;;7.93;0.90;;;;;;;;;;5017814;28;20260;-67
2022/03/17 12:21:57;;;;;;;8.07;0.80;;;;;;;;;;5036844;28;20268;-67
2022/03/17 12:24:40;;;;;;;9.00;1.30;;;;;;;;;;5016801;28;20190;-67
2022/03/17 12:27:17;;;;;;;7.40;0.85;;;;;;;;;;5040182;28;20283;-67
2022/03/17 12:29:45;;;;;;;9.60;1.05;;;;;;;;;;5019494;28;20217;-67
2022/03/17 12:32:14;;;;;;;5.50;1.10;;;;;;;;;;5039913;28;20201;-68
2022/03/17 12:34:42;;;;;;;4.72;0.90;;;;;;;;;;5041690;28;20554;-67
2022/03/17 12:37:08;;;;;;;6.95;1.13;;;;;;;;;;5042629;28;20181;-67
2022/03/17 12:39:34;;;;;;;5.40;1.08;;;;;;;;;;5043011;28;20200;-67
2022/03/17 12:42:00;;;;;;;8.40;1.27;;;;;;;;;;5044528;28;20189;-67
2022/03/17 12:44:27;;;;;;;9.82;1.50;;;;;;;;;;5042804;28;20235;-67
2022/03/17 12:46:54;;;;;;;8.93;1.65;;;;;;;;;;5040438;28;20247;-68
2022/03/17 12:49:20;;;;;;;6.57;1.08;;;;;;;;;;5034244;28;20229;-67
2022/03/17 12:51:48;;;;;;;7.03;1.38;;;;;;;;;;5043890;28;20260;-67
2022/03/17 12:54:14;;;;;;;11.20;1.90;;;;;;;;;;5042968;28;20213;-67
2022/03/17 12:56:52;;;;;;;7.53;1.10;;;;;;;;;;5043564;28;20699;-67
2022/03/17 12:59:18;;;;;;;5.22;1.13;;;;;;;;;;5036752;28;20175;-67
2022/03/17 13:01:46;;;;;;;9.80;1.48;;;;;;;;;;5038295;28;20612;-67
2022/03/17 13:04:11;;;;;;;10.75;1.45;;;;;;;;;;5032908;28;20189;-68
2022/03/17 13:06:55;;;;;;;5.63;1.10;;;;;;;;;;5042068;28;20177;-68
2022/03/17 13:09:32;;;;;;;7.45;1.10;;;;;;;;;;5026174;28;20670;-68
2022/03/17 13:14:57;;;;;;;7.43;0.80;;;;;;;;;;5031325;28;20442;-67
2022/03/17 13:17:37;;;;;;;3.80;0.90;;;;;;;;;;5042770;28;20184;-68
2022/03/17 13:20:08;;;;;;;9.75;0.95;;;;;;;;;;5028012;28;20272;-67
2022/03/17 13:22:34;;;;;;;5.22;1.02;;;;;;;;;;5022747;28;20228;-67
2022/03/17 13:25:06;;;;;;;6.15;1.15;;;;;;;;;;5026140;28;20222;-67
2022/03/17 13:27:32;;;;;;;7.18;1.20;;;;;;;;;;5033993;28;20201;-68
2022/03/17 13:30:01;;;;;;;4.32;1.02;;;;;;;;;;5024425;28;20174;-68
2022/03/17 13:32:27;;;;;;;8.07;1.00;;;;;;;;;;5027447;28;20213;-67
2022/03/17 13:35:00;;;;;;;6.28;0.80;;;;;;;;;;5013154;28;20177;-68
2022/03/17 13:37:40;;;;;;;7.82;1.30;;;;;;;;;;5031476;28;20186;-68
2022/03/17 13:40:09;;;;;;;4.47;0.90;;;;;;;;;;5026146;28;20240;-67
2022/03/17 13:42:35;;;;;;;10.70;1.77;;;;;;;;;;5028468;28;20266;-67
2022/03/17 13:45:01;;;;;;;4.60;1.00;;;;;;;;;;5025312;28;20280;-67
2022/03/17 13:47:29;;;;;;;5.55;0.90;;;;;;;;;;5027108;28;20217;-67
2022/03/17 13:50:08;;;;;;;7.78;1.20;;;;;;;;;;5022984;28;20182;-67
2022/03/17 13:52:33;;;;;;;5.32;1.00;;;;;;;;;;5027918;28;20190;-67
2022/03/17 13:54:59;;;;;;;6.43;1.30;;;;;;;;;;5035011;28;20209;-67
2022/03/17 13:57:24;;;;;;;8.18;1.17;;;;;;;;;;5021664;28;20273;-67
2022/03/17 13:59:49;;;;;;;6.93;1.23;;;;;;;;;;5026950;28;20200;-67
2022/03/17 14:02:17;;;;;;;5.00;1.00;;;;;;;;;;5028933;28;20907;-66
2022/03/17 14:04:56;;;;;;;7.03;0.88;;;;;;;;;;5031572;28;20285;-67
2022/03/17 14:07:22;;;;;;;8.27;0.88;;;;;;;;;;5042613;28;20254;-67
2022/03/17 14:09:47;;;;;;;6.68;1.15;;;;;;;;;;5043697;28;20229;-67
2022/03/17 14:12:13;;;;;;;7.75;1.48;;;;;;;;;;5041754;28;20185;-67
2022/03/17 14:14:38;;;;;;;3.90;1.20;;;;;;;;;;5040764;28;20622;-68
2022/03/17 14:17:04;;;;;;;5.90;0.93;;;;;;;;;;5047871;28;20577;-67
2022/03/17 14:19:29;;;;;;;5.22;0.80;;;;;;;;;;5046659;28;20187;-66
2022/03/17 14:24:41;;;;;;;5.75;1.00;;;;;;;;;;5045891;28;20320;-66
2022/03/17 14:27:07;;;;;;;4.03;0.82;;;;;;;;;;5046800;28;20254;-67
2022/03/17 14:29:32;;;;;;;6.80;1.25;;;;;;;;;;5040777;28;20210;-67
2022/03/17 14:31:58;;;;;;;2.97;0.85;;;;;;;;;;5047607;28;20694;-67
2022/03/17 14:34:25;;;;;;;8.45;1.17;;;;;;;;;;5046364;28;20192;-67
2022/03/17 14:36:53;;;;;;;8.52;1.33;;;;;;;;;;5032698;28;20659;-67
2022/03/17 14:39:18;;;;;;;6.93;1.33;;;;;;;;;;5034759;28;20173;-67
2022/03/17 14:41:44;;;;;;;4.60;0.85;;;;;;;;;;5045652;28;20288;-67
2022/03/17 14:44:10;;;;;;;5.07;0.90;;;;;;;;;;5040060;28;20852;-67
2022/03/17 14:46:36;;;;;;;5.05;0.80;;;;;;;;;;5032045;28;20174;-67
2022/03/17 14:49:09;;;;;;;2.97;0.70;;;;;;;;;;5039609;28;20254;-68
2022/03/17 14:51:36;;;;;;;6.15;0.90;;;;;;;;;;5027939;28;20285;-67
2022/03/17 14:54:02;;;;;;;3.08;1.00;;;;;;;;;;5027211;28;20216;-67
2022/03/17 14:56:27;;;;;;;6.75;1.48;;;;;;;;;;5028399;28;20722;-68